Airport View

Enter AWOS ICAO identifier for current METAR.

ex. KFNL

KHUT 240952Z AUTO 36009KT 10SM SCT120 01/M03 A3000 RMK AO2 SLP159 T00061033

24 Jan 2019 10:44

Phone: 620-662-1071

Other Area AWOS: KEWK - KICT - KAAO - KBEC

TAF KHUT 240540Z 2406/2506 30009KT P6SM BKN150 FM240800 32007KT P6SM OVC100 FM241300 01013KT P6SM OVC070 FM241500 01017G25KT P6SM BKN015 OVC070 FM242000 36017G26KT P6SM BKN025